Time;durP1;ratioP1;P1;durP2;ratioP2;P2;SDS_P1;SDS_P2;PMS_P1;PMS_P2;Temp;Humidity;BMP_temperature;BMP_pressure;BME280_temperature;BME280_humidity;BME280_pressure;Samples;Min_cycle;Max_cycle;Signal;HPM_P1;HPM_P2
2022/04/12 00:02:20;;;;;;;;;;;9.30;66.30;;;;;;4992929;28;19917;-61
2022/04/12 00:04:45;;;;;;;;;;;9.30;66.60;;;;;;4994176;28;19918;-59
2022/04/12 00:07:11;;;;;;;;;;;9.30;66.70;;;;;;4995872;28;19916;-57
2022/04/12 00:09:36;;;;;;;;;;;9.30;66.40;;;;;;4998200;28;20016;-59
2022/04/12 00:12:02;;;;;;;;;;;9.20;66.60;;;;;;4996774;28;19910;-63
2022/04/12 00:14:27;;;;;;;;;;;9.20;66.40;;;;;;4998142;28;19910;-59
2022/04/12 00:19:02;;;;;;;;;;;9.20;66.50;;;;;;4998050;28;20314;-58
2022/04/12 00:19:38;;;;;;;;;;;9.10;66.30;;;;;;4997935;28;20285;-59
2022/04/12 00:22:04;;;;;;;;;;;9.00;66.60;;;;;;4997856;28;19910;-59
2022/04/12 00:24:29;;;;;;;;;;;9.00;66.50;;;;;;4997878;28;19922;-60
2022/04/12 00:26:55;;;;;;;;;;;9.00;66.10;;;;;;4997942;28;19914;-59
2022/04/12 00:29:21;;;;;;;;;;;9.00;64.50;;;;;;4997862;28;20358;-58
2022/04/12 00:31:46;;;;;;;;;;;9.00;65.00;;;;;;4997978;28;19921;-59
2022/04/12 00:34:13;;;;;;;;;;;8.90;64.50;;;;;;4997611;28;19906;-57
2022/04/12 00:36:39;;;;;;;;;;;8.90;63.60;;;;;;4997791;28;19910;-58
2022/04/12 00:39:04;;;;;;;;;;;8.90;64.90;;;;;;4997906;28;20255;-58
2022/04/12 00:41:35;;;;;;;;;;;8.80;64.90;;;;;;4997629;28;19910;-58
2022/04/12 00:44:01;;;;;;;;;;;8.80;65.50;;;;;;4997430;28;19941;-58
2022/04/12 00:46:27;;;;;;;;;;;8.80;65.30;;;;;;4997472;28;19914;-57
2022/04/12 00:48:52;;;;;;;;;;;8.90;64.70;;;;;;4997737;28;19921;-58
2022/04/12 00:51:20;;;;;;;;;;;8.70;64.50;;;;;;4997409;28;19964;-58
2022/04/12 00:53:46;;;;;;;;;;;8.80;64.10;;;;;;4997699;28;20358;-58
2022/04/12 00:56:12;;;;;;;;;;;8.90;64.10;;;;;;4997529;28;20273;-59
2022/04/12 00:58:38;;;;;;;;;;;8.70;64.00;;;;;;4996998;28;19924;-57
2022/04/12 01:01:03;;;;;;;;;;;8.80;63.80;;;;;;4997018;28;20008;-57
2022/04/12 01:03:29;;;;;;;;;;;8.70;64.00;;;;;;4997325;28;19949;-58
2022/04/12 01:05:56;;;;;;;;;;;8.70;62.60;;;;;;4997231;28;19918;-58
2022/04/12 01:08:21;;;;;;;;;;;8.70;61.20;;;;;;4997361;28;19917;-58
2022/04/12 01:10:48;;;;;;;;;;;8.70;61.80;;;;;;4997280;28;20337;-57
2022/04/12 01:13:14;;;;;;;;;;;8.70;61.70;;;;;;4997165;28;19910;-58
2022/04/12 01:15:42;;;;;;;;;;;8.70;61.20;;;;;;5008058;28;19917;-58
2022/04/12 01:18:08;;;;;;;;;;;8.70;60.90;;;;;;5003891;28;19910;-57
2022/04/12 01:20:34;;;;;;;;;;;8.60;61.80;;;;;;4997009;28;19910;-57
2022/04/12 01:23:05;;;;;;;;;;;8.60;61.30;;;;;;4996808;28;20389;-58
2022/04/12 01:25:31;;;;;;;;;;;8.60;60.90;;;;;;4996759;28;19980;-57
2022/04/12 01:27:57;;;;;;;;;;;8.60;60.50;;;;;;4996636;28;20365;-58
2022/04/12 01:30:22;;;;;;;;;;;8.60;59.90;;;;;;4996971;28;19921;-58
2022/04/12 01:32:48;;;;;;;;;;;8.60;59.90;;;;;;4996741;28;19916;-58
2022/04/12 01:35:13;;;;;;;;;;;8.60;59.40;;;;;;4996912;28;20001;-58
2022/04/12 01:37:39;;;;;;;;;;;8.70;59.40;;;;;;4996487;28;19949;-57
2022/04/12 01:40:05;;;;;;;;;;;8.60;59.80;;;;;;4996852;28;19910;-57
2022/04/12 01:42:31;;;;;;;;;;;8.60;59.20;;;;;;4996463;28;20373;-57
2022/04/12 01:44:56;;;;;;;;;;;8.60;59.40;;;;;;4995201;28;20384;-57
2022/04/12 01:47:22;;;;;;;;;;;8.70;58.30;;;;;;4998333;28;20016;-58
2022/04/12 01:49:47;;;;;;;;;;;8.70;57.70;;;;;;4999150;28;19918;-58
2022/04/12 01:52:15;;;;;;;;;;;8.60;57.90;;;;;;4997065;28;20009;-58
2022/04/12 01:54:40;;;;;;;;;;;8.60;58.50;;;;;;4996292;28;19929;-57
2022/04/12 01:57:06;;;;;;;;;;;8.60;58.90;;;;;;4996096;28;19910;-57
2022/04/12 01:59:32;;;;;;;;;;;8.60;58.40;;;;;;4996476;28;19918;-57
2022/04/12 02:01:57;;;;;;;;;;;8.60;58.10;;;;;;4996199;28;19909;-57
2022/04/12 02:04:23;;;;;;;;;;;8.70;56.90;;;;;;4996063;28;19922;-58
2022/04/12 02:06:49;;;;;;;;;;;8.80;56.90;;;;;;4996348;28;19910;-58
2022/04/12 02:09:15;;;;;;;;;;;8.80;56.20;;;;;;4996115;28;20366;-58
2022/04/12 02:11:40;;;;;;;;;;;8.80;57.00;;;;;;4995767;28;19913;-57
2022/04/12 02:14:07;;;;;;;;;;;8.90;54.90;;;;;;4995888;28;19910;-58
2022/04/12 02:16:34;;;;;;;;;;;9.10;53.20;;;;;;4996049;28;19933;-56
2022/04/12 02:18:59;;;;;;;;;;;9.30;52.80;;;;;;4995925;28;19913;-57
2022/04/12 02:21:25;;;;;;;;;;;9.20;53.70;;;;;;4994206;28;19917;-57
2022/04/12 02:23:51;;;;;;;;;;;9.20;53.60;;;;;;4995843;28;19967;-58
2022/04/12 02:26:16;;;;;;;;;;;9.10;53.10;;;;;;4995859;28;20366;-58
2022/04/12 02:28:42;;;;;;;;;;;9.20;53.10;;;;;;4995591;28;20337;-59
2022/04/12 02:31:07;;;;;;;;;;;9.30;52.70;;;;;;4994624;28;19910;-58
2022/04/12 02:33:33;;;;;;;;;;;9.30;52.60;;;;;;4995576;28;19965;-56
2022/04/12 02:35:58;;;;;;;;;;;9.30;52.30;;;;;;4995763;28;19981;-59
2022/04/12 02:38:24;;;;;;;;;;;9.20;52.30;;;;;;4995342;28;19933;-57
2022/04/12 02:40:49;;;;;;;;;;;9.30;52.00;;;;;;4995211;28;19936;-58
2022/04/12 02:43:15;;;;;;;;;;;9.40;51.80;;;;;;4995273;28;19913;-56
2022/04/12 02:45:40;;;;;;;;;;;9.40;51.40;;;;;;4995174;28;19922;-58
2022/04/12 02:48:08;;;;;;;;;;;9.40;51.60;;;;;;4995500;28;19917;-56
2022/04/12 02:50:34;;;;;;;;;;;9.40;51.80;;;;;;4995507;28;19917;-57
2022/04/12 02:53:00;;;;;;;;;;;9.50;52.00;;;;;;4995233;28;19914;-58
2022/04/12 02:55:25;;;;;;;;;;;9.50;51.50;;;;;;4995165;28;19910;-57
2022/04/12 02:57:51;;;;;;;;;;;9.50;51.90;;;;;;4995374;28;19924;-57
2022/04/12 03:00:17;;;;;;;;;;;9.60;51.70;;;;;;4995314;28;19917;-57
2022/04/12 03:02:42;;;;;;;;;;;9.70;51.40;;;;;;4995100;28;20000;-57
2022/04/12 03:05:09;;;;;;;;;;;9.70;51.20;;;;;;4995241;28;19918;-59
2022/04/12 03:07:35;;;;;;;;;;;9.60;51.40;;;;;;4995030;28;19910;-60
2022/04/12 03:10:01;;;;;;;;;;;9.60;51.40;;;;;;4994800;28;19917;-58
2022/04/12 03:12:26;;;;;;;;;;;9.70;51.00;;;;;;4994777;28;19920;-57
2022/04/12 03:14:52;;;;;;;;;;;9.60;51.70;;;;;;4994942;28;19933;-58
2022/04/12 03:17:18;;;;;;;;;;;9.50;51.50;;;;;;4995054;28;19910;-58
2022/04/12 03:19:44;;;;;;;;;;;9.50;51.30;;;;;;4994853;28;19910;-59
2022/04/12 03:22:09;;;;;;;;;;;9.70;50.20;;;;;;4994682;28;19922;-57
2022/04/12 03:24:36;;;;;;;;;;;9.70;50.40;;;;;;4994650;28;20366;-59
2022/04/12 03:27:01;;;;;;;;;;;9.80;50.70;;;;;;4994819;28;20370;-57
2022/04/12 03:29:27;;;;;;;;;;;9.80;50.90;;;;;;4994688;28;19910;-57
2022/04/12 03:31:53;;;;;;;;;;;9.60;51.90;;;;;;4994576;28;19938;-58
2022/04/12 03:34:19;;;;;;;;;;;9.40;53.30;;;;;;4994779;28;19909;-58
2022/04/12 03:36:46;;;;;;;;;;;9.10;54.00;;;;;;4994865;28;19973;-63
2022/04/12 03:39:17;;;;;;;;;;;9.10;54.30;;;;;;4994662;28;19996;-57
2022/04/12 03:41:44;;;;;;;;;;;9.20;53.00;;;;;;4994386;28;19909;-65
2022/04/12 03:44:10;;;;;;;;;;;9.40;52.80;;;;;;4994351;28;19925;-58
2022/04/12 03:46:35;;;;;;;;;;;9.20;53.00;;;;;;4994613;28;19915;-59
2022/04/12 03:49:01;;;;;;;;;;;9.20;53.30;;;;;;4994907;28;19945;-59
2022/04/12 03:51:27;;;;;;;;;;;9.20;53.10;;;;;;4994392;28;20263;-58
2022/04/12 03:53:52;;;;;;;;;;;9.30;53.00;;;;;;4994334;28;20251;-67
2022/04/12 03:56:19;;;;;;;;;;;9.30;52.60;;;;;;4994541;28;20424;-59
2022/04/12 03:58:44;;;;;;;;;;;9.40;52.60;;;;;;4994113;28;19988;-57
2022/04/12 04:01:10;;;;;;;;;;;9.40;52.20;;;;;;4995539;28;19914;-56
2022/04/12 04:03:35;;;;;;;;;;;9.30;52.90;;;;;;4996925;28;19910;-56
2022/04/12 04:06:02;;;;;;;;;;;9.20;53.00;;;;;;4996739;28;19918;-57
2022/04/12 04:08:27;;;;;;;;;;;9.10;53.10;;;;;;4994385;28;20372;-59
2022/04/12 04:10:53;;;;;;;;;;;9.10;52.90;;;;;;4994301;28;19910;-59
2022/04/12 04:13:18;;;;;;;;;;;9.00;53.60;;;;;;4994189;28;20269;-58
2022/04/12 04:15:45;;;;;;;;;;;8.90;54.60;;;;;;4994431;28;19910;-57
2022/04/12 04:18:11;;;;;;;;;;;8.80;54.70;;;;;;4994310;28;19941;-58
2022/04/12 04:20:37;;;;;;;;;;;8.90;54.60;;;;;;4994269;28;19916;-57
2022/04/12 04:23:03;;;;;;;;;;;8.90;54.00;;;;;;4993980;28;20417;-59
2022/04/12 04:25:28;;;;;;;;;;;8.80;54.60;;;;;;4994031;28;19925;-57
2022/04/12 04:27:54;;;;;;;;;;;8.80;54.50;;;;;;4994045;28;19913;-57
2022/04/12 04:30:20;;;;;;;;;;;9.00;54.30;;;;;;4993970;28;20354;-57
2022/04/12 04:32:46;;;;;;;;;;;9.00;54.30;;;;;;4993871;28;19910;-57
2022/04/12 04:35:12;;;;;;;;;;;9.10;54.10;;;;;;4993986;28;19910;-58
2022/04/12 04:37:44;;;;;;;;;;;9.00;54.60;;;;;;4994005;28;20000;-58
2022/04/12 04:40:11;;;;;;;;;;;8.90;54.40;;;;;;4994166;28;19913;-58
2022/04/12 04:42:37;;;;;;;;;;;9.00;54.80;;;;;;4994178;28;19916;-56
2022/04/12 04:45:03;;;;;;;;;;;8.90;55.80;;;;;;4993738;28;20281;-58
2022/04/12 04:47:29;;;;;;;;;;;9.00;55.10;;;;;;4993988;28;19909;-58
2022/04/12 04:49:54;;;;;;;;;;;9.10;54.90;;;;;;4993943;28;20413;-57
2022/04/12 04:52:23;;;;;;;;;;;9.20;54.00;;;;;;4993610;28;19997;-58
2022/04/12 04:54:48;;;;;;;;;;;9.30;53.40;;;;;;4996151;28;19925;-58
2022/04/12 04:57:14;;;;;;;;;;;9.40;53.10;;;;;;4997169;28;19910;-58
2022/04/12 04:59:39;;;;;;;;;;;9.30;53.20;;;;;;4997416;28;19922;-58
2022/04/12 05:02:05;;;;;;;;;;;9.30;53.50;;;;;;4997232;28;19910;-59
2022/04/12 05:04:30;;;;;;;;;;;9.40;53.10;;;;;;4997039;28;19922;-58
2022/04/12 05:06:56;;;;;;;;;;;9.30;53.80;;;;;;4997203;28;19910;-58
2022/04/12 05:09:21;;;;;;;;;;;9.30;53.30;;;;;;4997115;28;19917;-58
2022/04/12 05:11:47;;;;;;;;;;;9.20;54.10;;;;;;4997100;28;19914;-58
2022/04/12 05:14:13;;;;;;;;;;;9.20;54.70;;;;;;4997005;28;19910;-57
2022/04/12 05:16:38;;;;;;;;;;;9.30;54.00;;;;;;4997263;28;20004;-56
2022/04/12 05:19:04;;;;;;;;;;;9.30;54.00;;;;;;4997117;28;19964;-57
2022/04/12 05:21:30;;;;;;;;;;;9.40;54.40;;;;;;4996799;28;20349;-58
2022/04/12 05:23:55;;;;;;;;;;;9.40;54.30;;;;;;4996952;28;19914;-56
2022/04/12 05:26:21;;;;;;;;;;;9.40;54.20;;;;;;4996652;28;20255;-57
2022/04/12 05:28:46;;;;;;;;;;;9.50;53.50;;;;;;4996806;28;19909;-57
2022/04/12 05:31:12;;;;;;;;;;;9.60;53.80;;;;;;4996516;28;19964;-56
2022/04/12 05:33:38;;;;;;;;;;;9.60;54.50;;;;;;4996729;28;20321;-57
2022/04/12 05:36:03;;;;;;;;;;;9.60;55.20;;;;;;4996462;28;19910;-57
2022/04/12 05:38:29;;;;;;;;;;;9.60;55.60;;;;;;4996397;28;20390;-57
2022/04/12 05:40:55;;;;;;;;;;;9.50;56.00;;;;;;4996204;28;20005;-57
2022/04/12 05:43:20;;;;;;;;;;;9.30;56.80;;;;;;4996483;28;19937;-57
2022/04/12 05:45:46;;;;;;;;;;;9.10;58.60;;;;;;4996481;28;19965;-57
2022/04/12 05:48:11;;;;;;;;;;;9.00;60.00;;;;;;4996192;28;19910;-57
2022/04/12 05:50:37;;;;;;;;;;;9.00;60.30;;;;;;4996238;28;19917;-58
2022/04/12 05:53:02;;;;;;;;;;;8.90;60.80;;;;;;4996382;28;19918;-57
2022/04/12 05:55:28;;;;;;;;;;;9.00;61.60;;;;;;4996443;28;19910;-57
2022/04/12 05:57:56;;;;;;;;;;;8.90;61.60;;;;;;4996026;28;19926;-57
2022/04/12 06:00:23;;;;;;;;;;;9.00;61.90;;;;;;4996231;28;19972;-60
2022/04/12 06:02:49;;;;;;;;;;;9.30;62.90;;;;;;4996169;28;19964;-59
2022/04/12 06:05:15;;;;;;;;;;;9.50;61.90;;;;;;4995870;28;20410;-57
2022/04/12 06:07:41;;;;;;;;;;;9.90;60.60;;;;;;4995860;28;19917;-59
2022/04/12 06:10:07;;;;;;;;;;;10.30;62.20;;;;;;4989748;28;19918;-62
2022/04/12 06:12:32;;;;;;;;;;;10.90;58.60;;;;;;4995343;28;19914;-61
2022/04/12 06:14:58;;;;;;;;;;;11.50;58.30;;;;;;4995841;28;19914;-60
2022/04/12 06:17:30;;;;;;;;;;;12.00;57.00;;;;;;4995671;28;19910;-61
2022/04/12 06:20:05;;;;;;;;;;;12.40;55.80;;;;;;4995578;28;19909;-58
2022/04/12 06:22:31;;;;;;;;;;;12.80;53.80;;;;;;4995720;28;19996;-60
2022/04/12 06:24:57;;;;;;;;;;;13.20;52.70;;;;;;4995520;28;19967;-58
2022/04/12 06:27:33;;;;;;;;;;;13.40;51.60;;;;;;4995537;28;19910;-59
2022/04/12 06:30:02;;;;;;;;;;;13.60;50.80;;;;;;4995135;28;20032;-59
2022/04/12 06:32:28;;;;;;;;;;;13.90;52.00;;;;;;4995231;28;20055;-58
2022/04/12 06:34:54;;;;;;;;;;;14.20;50.20;;;;;;4991515;28;20012;-57
2022/04/12 06:37:23;;;;;;;;;;;14.40;49.80;;;;;;4987086;28;20320;-58
2022/04/12 06:39:48;;;;;;;;;;;14.70;49.70;;;;;;4992273;28;19916;-61
2022/04/12 06:42:14;;;;;;;;;;;14.90;49.40;;;;;;4994529;28;19910;-56
2022/04/12 06:44:41;;;;;;;;;;;15.00;46.40;;;;;;4994418;28;19917;-57
2022/04/12 06:47:07;;;;;;;;;;;15.00;47.40;;;;;;4993503;28;20259;-62
2022/04/12 06:49:33;;;;;;;;;;;15.10;48.00;;;;;;4994335;28;19916;-61
2022/04/12 06:51:59;;;;;;;;;;;15.20;49.30;;;;;;4994274;28;19910;-59
2022/04/12 06:54:25;;;;;;;;;;;15.30;49.50;;;;;;4994499;28;19910;-57
2022/04/12 06:56:51;;;;;;;;;;;15.50;48.90;;;;;;4994497;28;20009;-60
2022/04/12 06:59:16;;;;;;;;;;;15.70;49.00;;;;;;4994208;28;20382;-57
2022/04/12 07:01:42;;;;;;;;;;;15.80;45.80;;;;;;4994247;28;19910;-57
2022/04/12 07:04:07;;;;;;;;;;;15.50;46.20;;;;;;4993899;28;20378;-57
2022/04/12 07:06:33;;;;;;;;;;;15.60;47.30;;;;;;4993722;28;19945;-55
2022/04/12 07:08:58;;;;;;;;;;;15.80;46.70;;;;;;4994218;28;19910;-60
2022/04/12 07:11:24;;;;;;;;;;;15.30;44.90;;;;;;4994035;28;19925;-59
2022/04/12 07:13:49;;;;;;;;;;;15.40;44.50;;;;;;4994384;28;19914;-58
2022/04/12 07:16:15;;;;;;;;;;;15.50;44.30;;;;;;4993710;28;20726;-58
2022/04/12 07:18:41;;;;;;;;;;;15.40;43.90;;;;;;4993312;28;19910;-58
2022/04/12 07:21:07;;;;;;;;;;;15.20;44.90;;;;;;4994498;28;20263;-57
2022/04/12 07:23:36;;;;;;;;;;;15.30;44.60;;;;;;4994729;28;20005;-58
2022/04/12 07:26:04;;;;;;;;;;;15.40;45.00;;;;;;4994033;28;19922;-57
2022/04/12 07:28:30;;;;;;;;;;;15.60;44.80;;;;;;4994401;28;19963;-57
2022/04/12 07:30:56;;;;;;;;;;;15.20;44.20;;;;;;4994477;28;19910;-58
2022/04/12 07:33:22;;;;;;;;;;;14.90;44.70;;;;;;4994762;28;20333;-58
2022/04/12 07:35:47;;;;;;;;;;;15.00;44.40;;;;;;4994360;28;19910;-57
2022/04/12 07:38:13;;;;;;;;;;;15.00;44.80;;;;;;4994411;28;19917;-68
2022/04/12 07:40:38;;;;;;;;;;;15.30;44.90;;;;;;4994425;28;19909;-57
2022/04/12 07:43:04;;;;;;;;;;;15.80;44.10;;;;;;4993111;28;19910;-56
2022/04/12 07:45:30;;;;;;;;;;;16.00;42.90;;;;;;4994192;28;19922;-56
2022/04/12 07:47:55;;;;;;;;;;;15.70;43.40;;;;;;4994237;28;19910;-55
2022/04/12 07:50:21;;;;;;;;;;;15.80;43.60;;;;;;4994122;28;20383;-56
2022/04/12 07:52:47;;;;;;;;;;;15.70;43.20;;;;;;4993702;28;20032;-56
2022/04/12 07:55:12;;;;;;;;;;;15.80;43.50;;;;;;4994034;28;19925;-58
2022/04/12 07:57:38;;;;;;;;;;;16.20;43.10;;;;;;4993362;28;19914;-57
2022/04/12 08:00:04;;;;;;;;;;;16.30;42.50;;;;;;4993574;28;19913;-58
2022/04/12 08:02:29;;;;;;;;;;;16.60;47.90;;;;;;4993575;28;19921;-59
2022/04/12 08:04:55;;;;;;;;;;;16.30;42.80;;;;;;4993047;28;20007;-56
2022/04/12 08:07:21;;;;;;;;;;;16.10;43.10;;;;;;4993835;28;19932;-55
2022/04/12 08:09:46;;;;;;;;;;;16.00;43.20;;;;;;4993818;28;19910;-55
2022/04/12 08:12:12;;;;;;;;;;;16.10;43.70;;;;;;4993773;28;19918;-55
2022/04/12 08:14:37;;;;;;;;;;;16.10;43.90;;;;;;4993710;28;20384;-56
2022/04/12 08:17:03;;;;;;;;;;;15.80;44.10;;;;;;4994122;28;20334;-56
2022/04/12 08:19:29;;;;;;;;;;;16.20;45.40;;;;;;4993662;28;20274;-58
2022/04/12 08:21:54;;;;;;;;;;;16.30;42.40;;;;;;4993851;28;20255;-58
2022/04/12 08:24:21;;;;;;;;;;;16.10;43.20;;;;;;4993632;28;19945;-57
2022/04/12 08:26:47;;;;;;;;;;;16.60;44.30;;;;;;4993882;28;19909;-57
2022/04/12 08:29:13;;;;;;;;;;;16.80;42.80;;;;;;4996045;28;20278;-58
2022/04/12 08:31:39;;;;;;;;;;;17.00;42.50;;;;;;4997917;28;19952;-58
2022/04/12 08:34:05;;;;;;;;;;;16.60;41.80;;;;;;4997476;28;19917;-58
2022/04/12 08:36:30;;;;;;;;;;;16.60;42.70;;;;;;4997736;28;19910;-59
2022/04/12 08:38:56;;;;;;;;;;;16.60;42.60;;;;;;4997629;28;19965;-58
2022/04/12 08:41:23;;;;;;;;;;;16.60;43.10;;;;;;4997254;28;20016;-60
2022/04/12 08:43:53;;;;;;;;;;;16.90;43.90;;;;;;4997222;28;19917;-58
2022/04/12 08:46:20;;;;;;;;;;;16.90;41.20;;;;;;4997348;28;19913;-61
2022/04/12 08:48:46;;;;;;;;;;;16.50;41.90;;;;;;4997404;28;20008;-57
2022/04/12 08:51:11;;;;;;;;;;;16.20;42.20;;;;;;4997160;28;20004;-56
2022/04/12 08:53:37;;;;;;;;;;;16.20;42.90;;;;;;4997454;28;20007;-59
2022/04/12 08:56:03;;;;;;;;;;;16.40;43.40;;;;;;4997325;28;20052;-57
2022/04/12 08:58:28;;;;;;;;;;;16.80;44.40;;;;;;4997104;28;19921;-57
2022/04/12 09:00:54;;;;;;;;;;;17.20;43.20;;;;;;4996934;28;19938;-56
2022/04/12 09:03:20;;;;;;;;;;;17.10;41.20;;;;;;4997688;28;19957;-56
2022/04/12 09:05:46;;;;;;;;;;;17.10;42.90;;;;;;4997082;28;20393;-64
2022/04/12 09:08:23;;;;;;;;;;;16.80;41.40;;;;;;4996943;28;19917;-58
2022/04/12 09:10:54;;;;;;;;;;;16.60;42.30;;;;;;4997096;28;20011;-63
2022/04/12 09:13:20;;;;;;;;;;;16.40;41.80;;;;;;4996740;28;19914;-60
2022/04/12 09:15:45;;;;;;;;;;;16.10;42.60;;;;;;4996913;28;20001;-57
2022/04/12 09:18:11;;;;;;;;;;;16.30;44.30;;;;;;4996931;28;19916;-65
2022/04/12 09:20:37;;;;;;;;;;;16.60;44.20;;;;;;4997106;28;19910;-58
2022/04/12 09:23:02;;;;;;;;;;;16.60;42.90;;;;;;4996837;28;19910;-64
2022/04/12 09:25:28;;;;;;;;;;;16.60;41.90;;;;;;4996455;28;19925;-63
2022/04/12 09:27:55;;;;;;;;;;;16.60;43.40;;;;;;4997019;28;20004;-60
2022/04/12 09:30:21;;;;;;;;;;;16.80;44.40;;;;;;4996737;28;20378;-57
2022/04/12 09:32:48;;;;;;;;;;;17.10;44.30;;;;;;4995340;28;19957;-57
2022/04/12 09:35:14;;;;;;;;;;;17.30;41.80;;;;;;4996588;28;19938;-60
2022/04/12 09:37:42;;;;;;;;;;;17.10;40.90;;;;;;4996323;28;20029;-58
2022/04/12 09:40:08;;;;;;;;;;;16.90;41.10;;;;;;4996059;28;19925;-59
2022/04/12 09:42:44;;;;;;;;;;;17.10;42.50;;;;;;4996404;28;19910;-63
2022/04/12 09:45:14;;;;;;;;;;;17.30;42.20;;;;;;4994961;28;20409;-57
2022/04/12 09:47:40;;;;;;;;;;;17.40;40.80;;;;;;4995962;28;19910;-56
2022/04/12 09:50:07;;;;;;;;;;;17.60;41.80;;;;;;4996372;28;19910;-59
2022/04/12 09:52:32;;;;;;;;;;;17.40;40.50;;;;;;4994645;28;20048;-56
2022/04/12 09:54:58;;;;;;;;;;;17.50;41.50;;;;;;4995772;28;19993;-58
2022/04/12 09:57:25;;;;;;;;;;;17.50;39.90;;;;;;4995846;28;19914;-55
2022/04/12 09:59:54;;;;;;;;;;;17.30;40.40;;;;;;4996069;28;19928;-65
2022/04/12 10:02:21;;;;;;;;;;;17.40;41.70;;;;;;4995769;28;19940;-58
2022/04/12 10:04:47;;;;;;;;;;;17.50;41.40;;;;;;4995674;28;19992;-55
2022/04/12 10:07:13;;;;;;;;;;;17.30;41.90;;;;;;4995252;28;19914;-58
2022/04/12 10:09:40;;;;;;;;;;;17.10;41.80;;;;;;4995388;28;19953;-56
2022/04/12 10:12:06;;;;;;;;;;;16.90;43.10;;;;;;4984447;28;19916;-56
2022/04/12 10:14:32;;;;;;;;;;;16.90;44.00;;;;;;4992813;28;19910;-56
2022/04/12 10:16:58;;;;;;;;;;;17.20;44.50;;;;;;4995729;28;20321;-57
2022/04/12 10:19:23;;;;;;;;;;;17.50;44.20;;;;;;4995936;28;20280;-55
2022/04/12 10:21:49;;;;;;;;;;;17.70;42.80;;;;;;4995439;28;19920;-57
2022/04/12 10:24:15;;;;;;;;;;;17.70;41.90;;;;;;4996203;28;19917;-58
2022/04/12 10:26:43;;;;;;;;;;;17.60;43.00;;;;;;4995685;28;19913;-57
2022/04/12 10:29:08;;;;;;;;;;;17.70;44.20;;;;;;4995350;28;19910;-59
2022/04/12 10:31:34;;;;;;;;;;;17.80;43.70;;;;;;4995722;28;20254;-58
2022/04/12 10:34:09;;;;;;;;;;;17.90;43.70;;;;;;4995606;28;19913;-57
2022/04/12 10:36:53;;;;;;;;;;;18.00;43.60;;;;;;4995709;28;19910;-57
2022/04/12 10:39:20;;;;;;;;;;;17.90;42.60;;;;;;4995654;28;19909;-58
2022/04/12 10:41:48;;;;;;;;;;;17.80;44.70;;;;;;4995458;28;19973;-57
2022/04/12 10:44:20;;;;;;;;;;;17.80;44.20;;;;;;4995175;28;19913;-58
2022/04/12 10:46:47;;;;;;;;;;;17.80;44.90;;;;;;4995168;28;19914;-57
2022/04/12 10:49:18;;;;;;;;;;;17.80;44.10;;;;;;4993869;28;21540;-60
2022/04/12 10:51:46;;;;;;;;;;;18.00;44.40;;;;;;4987943;28;19909;-60
2022/04/12 10:54:31;;;;;;;;;;;17.90;42.70;;;;;;4994325;28;19976;-57
2022/04/12 10:57:16;;;;;;;;;;;17.90;43.80;;;;;;4993921;28;19944;-60
2022/04/12 10:59:46;;;;;;;;;;;18.00;44.50;;;;;;4967816;28;20398;-61
2022/04/12 11:02:12;;;;;;;;;;;18.20;44.60;;;;;;4975144;28;20286;-61
2022/04/12 11:04:37;;;;;;;;;;;18.20;45.00;;;;;;4985734;28;19914;-58
2022/04/12 11:07:06;;;;;;;;;;;18.30;44.70;;;;;;4992444;28;19917;-60
2022/04/12 11:09:32;;;;;;;;;;;18.30;45.50;;;;;;4993888;28;20278;-60
2022/04/12 11:12:01;;;;;;;;;;;18.40;45.50;;;;;;4993697;28;19909;-60
2022/04/12 11:14:33;;;;;;;;;;;18.30;45.90;;;;;;4993765;28;19960;-61
2022/04/12 11:17:00;;;;;;;;;;;18.40;45.90;;;;;;4994287;28;19941;-58
2022/04/12 11:19:26;;;;;;;;;;;18.60;46.20;;;;;;4994461;28;20325;-57
2022/04/12 11:21:55;;;;;;;;;;;18.50;45.80;;;;;;4994212;28;19965;-59
2022/04/12 11:24:24;;;;;;;;;;;18.50;46.00;;;;;;4994060;28;20373;-60
2022/04/12 11:27:01;;;;;;;;;;;18.60;45.60;;;;;;4994266;28;19914;-59
2022/04/12 11:29:27;;;;;;;;;;;18.50;45.90;;;;;;4994227;28;20353;-59
2022/04/12 11:31:54;;;;;;;;;;;17.90;48.10;;;;;;4994066;28;19910;-58
2022/04/12 11:34:20;;;;;;;;;;;17.80;47.80;;;;;;4994101;28;19909;-55
2022/04/12 11:36:46;;;;;;;;;;;18.00;48.00;;;;;;4993993;28;19953;-54
2022/04/12 11:39:18;;;;;;;;;;;18.10;47.20;;;;;;4994020;28;19964;-53
2022/04/12 11:41:44;;;;;;;;;;;18.30;46.60;;;;;;4993757;28;19910;-54
2022/04/12 11:44:10;;;;;;;;;;;18.30;47.30;;;;;;4993967;28;19961;-55
2022/04/12 11:46:36;;;;;;;;;;;18.30;46.90;;;;;;4993990;28;19921;-56
2022/04/12 11:49:06;;;;;;;;;;;18.40;46.40;;;;;;4993702;28;19993;-54
2022/04/12 11:51:47;;;;;;;;;;;18.00;46.50;;;;;;4993596;28;19909;-55
2022/04/12 11:54:18;;;;;;;;;;;17.80;48.20;;;;;;4993276;28;19913;-52
2022/04/12 11:56:44;;;;;;;;;;;17.90;47.90;;;;;;4993256;28;19909;-57
2022/04/12 11:59:10;;;;;;;;;;;18.10;47.80;;;;;;4992904;28;19925;-57
2022/04/12 12:01:35;;;;;;;;;;;18.30;46.70;;;;;;4993177;28;20325;-57
2022/04/12 12:04:05;;;;;;;;;;;18.20;46.90;;;;;;4996315;28;19921;-57
2022/04/12 12:06:30;;;;;;;;;;;18.00;47.10;;;;;;4994559;28;20369;-55
2022/04/12 12:08:56;;;;;;;;;;;18.00;48.40;;;;;;4997108;28;19910;-54
2022/04/12 12:11:22;;;;;;;;;;;17.80;47.40;;;;;;4997036;28;20001;-55
2022/04/12 12:13:57;;;;;;;;;;;17.30;48.80;;;;;;4997015;28;19917;-57
2022/04/12 12:16:23;;;;;;;;;;;17.20;50.00;;;;;;4997159;28;20076;-55
2022/04/12 12:18:49;;;;;;;;;;;17.50;50.90;;;;;;4996981;28;20010;-54
2022/04/12 12:21:19;;;;;;;;;;;17.80;49.90;;;;;;4989823;28;19913;-57
2022/04/12 12:23:44;;;;;;;;;;;17.90;49.00;;;;;;4981917;28;19913;-55
2022/04/12 12:26:10;;;;;;;;;;;17.50;49.40;;;;;;4996776;28;20350;-54
2022/04/12 12:28:39;;;;;;;;;;;17.50;50.40;;;;;;4996603;28;19910;-56
2022/04/12 12:31:07;;;;;;;;;;;17.70;51.70;;;;;;4996635;28;19913;-57
2022/04/12 12:33:44;;;;;;;;;;;17.90;51.10;;;;;;4996926;28;19947;-54
2022/04/12 12:36:17;;;;;;;;;;;18.00;50.50;;;;;;4996787;28;20285;-55
2022/04/12 12:38:44;;;;;;;;;;;17.90;50.20;;;;;;4994963;28;19910;-56
2022/04/12 12:41:09;;;;;;;;;;;17.70;50.60;;;;;;4996381;28;19909;-56
2022/04/12 12:43:35;;;;;;;;;;;17.70;50.20;;;;;;4996403;28;20263;-55
2022/04/12 12:46:05;;;;;;;;;;;18.00;50.60;;;;;;4996799;28;19992;-56
2022/04/12 12:48:31;;;;;;;;;;;17.90;50.20;;;;;;4996829;28;19921;-55
2022/04/12 12:50:56;;;;;;;;;;;17.50;51.60;;;;;;4996825;28;19913;-53
2022/04/12 12:53:25;;;;;;;;;;;17.80;51.80;;;;;;4997057;28;19913;-53
2022/04/12 12:55:51;;;;;;;;;;;18.00;51.00;;;;;;4996921;28;19919;-54
2022/04/12 12:58:20;;;;;;;;;;;18.20;50.40;;;;;;4996737;28;19932;-55
2022/04/12 13:00:46;;;;;;;;;;;18.40;49.30;;;;;;4996843;28;19910;-55
2022/04/12 13:03:13;;;;;;;;;;;18.40;49.00;;;;;;4996697;28;19917;-53
2022/04/12 13:05:45;;;;;;;;;;;18.40;49.60;;;;;;4995159;28;20020;-55
2022/04/12 13:08:11;;;;;;;;;;;18.40;48.80;;;;;;4993820;28;19921;-54
2022/04/12 13:10:38;;;;;;;;;;;18.50;49.20;;;;;;4996023;28;19949;-57
2022/04/12 13:13:04;;;;;;;;;;;18.30;48.60;;;;;;4986063;28;20226;-53
2022/04/12 13:15:30;;;;;;;;;;;17.90;49.20;;;;;;4986738;28;19910;-53
2022/04/12 13:17:56;;;;;;;;;;;17.10;51.10;;;;;;4985202;28;19910;-55
2022/04/12 13:20:22;;;;;;;;;;;17.40;51.50;;;;;;4976929;28;19914;-56
2022/04/12 13:22:48;;;;;;;;;;;17.00;52.60;;;;;;4977278;28;19932;-57
2022/04/12 13:25:20;;;;;;;;;;;17.30;52.20;;;;;;4977057;28;19977;-55
2022/04/12 13:27:46;;;;;;;;;;;17.50;51.50;;;;;;4977537;28;19933;-55
2022/04/12 13:30:12;;;;;;;;;;;17.80;52.10;;;;;;4977256;28;19922;-55
2022/04/12 13:32:38;;;;;;;;;;;17.90;50.40;;;;;;4977869;28;20393;-54
2022/04/12 13:35:04;;;;;;;;;;;18.00;49.60;;;;;;4995719;28;20396;-54
2022/04/12 13:37:30;;;;;;;;;;;17.90;49.60;;;;;;4996440;28;19941;-55
2022/04/12 13:39:55;;;;;;;;;;;17.30;50.50;;;;;;4996175;28;19916;-57
2022/04/12 13:42:21;;;;;;;;;;;17.40;51.20;;;;;;4996016;28;19916;-57
2022/04/12 13:44:47;;;;;;;;;;;17.60;51.00;;;;;;4996402;28;19917;-54
2022/04/12 13:47:12;;;;;;;;;;;17.70;50.80;;;;;;4996482;28;19972;-55
2022/04/12 13:49:38;;;;;;;;;;;18.00;51.00;;;;;;4996089;28;20003;-59
2022/04/12 13:52:07;;;;;;;;;;;18.20;50.20;;;;;;4995834;28;19914;-54
2022/04/12 13:54:33;;;;;;;;;;;18.30;49.30;;;;;;4996253;28;20016;-54
2022/04/12 13:56:58;;;;;;;;;;;18.20;49.20;;;;;;4995225;28;20426;-54
2022/04/12 13:59:24;;;;;;;;;;;17.40;51.10;;;;;;4995905;28;19921;-67
2022/04/12 14:01:53;;;;;;;;;;;17.10;51.50;;;;;;4996135;28;20255;-59
2022/04/12 14:04:20;;;;;;;;;;;17.10;52.10;;;;;;4995854;28;19914;-70
2022/04/12 14:06:45;;;;;;;;;;;17.30;52.40;;;;;;4996007;28;19936;-55
2022/04/12 14:09:11;;;;;;;;;;;17.40;51.80;;;;;;4996163;28;20373;-66
2022/04/12 14:11:37;;;;;;;;;;;17.60;51.40;;;;;;4995819;28;19985;-58
2022/04/12 14:14:04;;;;;;;;;;;17.80;51.10;;;;;;4995871;28;19910;-55
2022/04/12 14:16:30;;;;;;;;;;;18.00;50.40;;;;;;4995802;28;19914;-56
2022/04/12 14:18:56;;;;;;;;;;;17.60;50.30;;;;;;4995930;28;20282;-55
2022/04/12 14:21:22;;;;;;;;;;;17.80;51.30;;;;;;4995540;28;19913;-58